Time;durP1;ratioP1;P1;durP2;ratioP2;P2;SDS_P1;SDS_P2;PMS_P1;PMS_P2;Temp;Humidity;BMP_temperature;BMP_pressure;BME280_temperature;BME280_humidity;BME280_pressure;Samples;Min_cycle;Max_cycle;Signal;HPM_P1;HPM_P2
2021/08/31 00:05:24;;;;;;;6.93;4.45;;;;;;;;;;5011561;28;20054;-86
2021/08/31 00:10:45;;;;;;;7.50;5.00;;;;;;;;;;5011792;28;20511;-86
2021/08/31 00:13:15;;;;;;;6.50;4.57;;;;;;;;;;5012764;28;20042;-86
2021/08/31 00:16:00;;;;;;;9.68;6.13;;;;;;;;;;5012304;28;20415;-86
2021/08/31 00:18:49;;;;;;;7.60;4.75;;;;;;;;;;5012517;28;20479;-86
2021/08/31 00:21:23;;;;;;;7.07;5.18;;;;;;;;;;5007325;28;20116;-86
2021/08/31 00:23:56;;;;;;;6.78;5.05;;;;;;;;;;5012546;28;20048;-86
2021/08/31 00:26:31;;;;;;;6.82;4.63;;;;;;;;;;5012130;28;20053;-87
2021/08/31 00:31:51;;;;;;;6.63;4.82;;;;;;;;;;5010269;28;20046;-86
2021/08/31 00:37:24;;;;;;;6.63;4.53;;;;;;;;;;5011691;28;20133;-86
2021/08/31 00:42:57;;;;;;;6.60;4.45;;;;;;;;;;5014295;28;20056;-86
2021/08/31 00:45:34;;;;;;;6.60;4.25;;;;;;;;;;5015803;28;20058;-86
2021/08/31 00:48:02;;;;;;;7.13;4.43;;;;;;;;;;5029728;22;20042;-84
2021/08/31 00:50:30;;;;;;;7.13;5.53;;;;;;;;;;5019030;28;20077;-81
2021/08/31 00:52:58;;;;;;;7.90;5.40;;;;;;;;;;5019120;28;20050;-81
2021/08/31 00:55:25;;;;;;;8.50;6.47;;;;;;;;;;5018154;28;20057;-82
2021/08/31 00:57:52;;;;;;;8.75;6.68;;;;;;;;;;5017687;28;20046;-80
2021/08/31 01:00:19;;;;;;;7.28;5.45;;;;;;;;;;5022226;28;20073;-78
2021/08/31 01:02:46;;;;;;;8.32;5.53;;;;;;;;;;5028477;28;20098;-81
2021/08/31 01:05:13;;;;;;;7.43;5.70;;;;;;;;;;5029820;28;20046;-79
2021/08/31 01:07:41;;;;;;;7.65;5.60;;;;;;;;;;5029149;28;20042;-78
2021/08/31 01:10:09;;;;;;;7.38;5.10;;;;;;;;;;5030915;28;20081;-81
2021/08/31 01:12:37;;;;;;;8.60;5.85;;;;;;;;;;5029484;28;20116;-81
2021/08/31 01:15:04;;;;;;;9.05;6.72;;;;;;;;;;5029079;28;20060;-81
2021/08/31 01:17:31;;;;;;;8.32;6.18;;;;;;;;;;5030298;28;20054;-78
2021/08/31 01:19:59;;;;;;;8.75;6.03;;;;;;;;;;5030409;28;20077;-81
2021/08/31 01:22:26;;;;;;;8.75;6.20;;;;;;;;;;5022548;28;20046;-81
2021/08/31 01:34:43;;;;;;;9.63;6.00;;;;;;;;;;5057791;28;20132;-86
2021/08/31 01:37:37;;;;;;;9.40;6.35;;;;;;;;;;4940618;28;20051;-86
2021/08/31 01:40:33;;;;;;;8.52;5.50;;;;;;;;;;4898760;29;20060;-86
2021/08/31 01:43:19;;;;;;;10.13;6.75;;;;;;;;;;4890293;29;20051;-86
2021/08/31 01:45:47;;;;;;;8.77;6.70;;;;;;;;;;5012847;23;20046;-80
2021/08/31 01:48:14;;;;;;;10.20;6.82;;;;;;;;;;5018170;28;20137;-79
2021/08/31 01:50:42;;;;;;;9.90;5.95;;;;;;;;;;5016923;28;20069;-79
2021/08/31 01:53:09;;;;;;;9.98;6.97;;;;;;;;;;5018281;28;20136;-79
2021/08/31 01:55:36;;;;;;;9.35;6.20;;;;;;;;;;5018098;28;20077;-80
2021/08/31 01:58:03;;;;;;;9.82;6.40;;;;;;;;;;5018258;28;20133;-79
2021/08/31 02:00:30;;;;;;;8.85;6.47;;;;;;;;;;5016475;28;20088;-80
2021/08/31 02:02:58;;;;;;;8.85;6.43;;;;;;;;;;5017318;28;20149;-79
2021/08/31 02:05:25;;;;;;;9.13;5.80;;;;;;;;;;5017402;28;20069;-80
2021/08/31 02:07:53;;;;;;;7.55;5.25;;;;;;;;;;5016907;28;20096;-79
2021/08/31 02:10:19;;;;;;;9.07;6.28;;;;;;;;;;5017504;28;20104;-80
2021/08/31 02:12:46;;;;;;;8.43;6.10;;;;;;;;;;5017361;28;20133;-79
2021/08/31 02:15:13;;;;;;;8.25;5.57;;;;;;;;;;5017382;28;20133;-79
2021/08/31 02:17:39;;;;;;;8.05;5.50;;;;;;;;;;5017063;28;20050;-79
2021/08/31 02:20:08;;;;;;;9.02;5.57;;;;;;;;;;5016625;28;20185;-80
2021/08/31 02:22:35;;;;;;;8.85;6.40;;;;;;;;;;5017345;28;20108;-79
2021/08/31 02:25:04;;;;;;;9.38;5.88;;;;;;;;;;5018219;28;20077;-80
2021/08/31 02:27:30;;;;;;;9.77;5.75;;;;;;;;;;5008307;28;20077;-80
2021/08/31 02:29:57;;;;;;;9.68;5.70;;;;;;;;;;4997694;28;20089;-79
2021/08/31 02:32:24;;;;;;;8.75;6.15;;;;;;;;;;4997475;28;20042;-79
2021/08/31 02:34:50;;;;;;;8.60;6.03;;;;;;;;;;4997737;28;20086;-80
2021/08/31 02:37:17;;;;;;;9.75;7.22;;;;;;;;;;4998239;28;20129;-80
2021/08/31 02:39:44;;;;;;;8.55;5.97;;;;;;;;;;4997660;28;20500;-79
2021/08/31 02:42:12;;;;;;;9.15;5.43;;;;;;;;;;4997847;28;20046;-80
2021/08/31 02:44:39;;;;;;;10.80;6.28;;;;;;;;;;4997829;28;20050;-79
2021/08/31 02:47:06;;;;;;;9.30;5.95;;;;;;;;;;5002185;28;20055;-79
2021/08/31 02:49:33;;;;;;;8.65;5.82;;;;;;;;;;5002697;28;20081;-81
2021/08/31 02:51:59;;;;;;;8.68;5.97;;;;;;;;;;5001996;28;20078;-82
2021/08/31 02:54:26;;;;;;;9.98;6.78;;;;;;;;;;5000509;28;20130;-79
2021/08/31 02:56:53;;;;;;;9.27;5.97;;;;;;;;;;4999585;28;20088;-80
2021/08/31 02:59:21;;;;;;;8.27;5.97;;;;;;;;;;4998660;28;20093;-80
2021/08/31 03:02:06;;;;;;;9.50;5.80;;;;;;;;;;4999835;28;20082;-79
2021/08/31 03:04:35;;;;;;;7.93;5.63;;;;;;;;;;5017943;28;20106;-79
2021/08/31 03:07:02;;;;;;;8.45;5.90;;;;;;;;;;5018439;28;20384;-79
2021/08/31 03:09:29;;;;;;;7.95;5.47;;;;;;;;;;5020224;28;20076;-79
2021/08/31 03:11:55;;;;;;;7.97;5.53;;;;;;;;;;5021724;28;20089;-79
2021/08/31 03:14:23;;;;;;;8.95;6.22;;;;;;;;;;5020321;28;20096;-79
2021/08/31 03:16:50;;;;;;;8.73;6.10;;;;;;;;;;5020146;28;20519;-79
2021/08/31 03:19:20;;;;;;;9.98;6.65;;;;;;;;;;5019437;28;20474;-79
2021/08/31 03:21:47;;;;;;;7.95;4.68;;;;;;;;;;5019124;28;20045;-78
2021/08/31 03:24:14;;;;;;;6.30;4.35;;;;;;;;;;5021422;28;20110;-79
2021/08/31 03:26:40;;;;;;;6.47;4.68;;;;;;;;;;5024337;28;20080;-78
2021/08/31 03:29:07;;;;;;;7.88;4.20;;;;;;;;;;5022367;28;20129;-79
2021/08/31 03:31:35;;;;;;;6.72;4.50;;;;;;;;;;5017752;28;20073;-80
2021/08/31 03:34:02;;;;;;;6.50;4.53;;;;;;;;;;5018121;28;20158;-78
2021/08/31 03:36:28;;;;;;;7.45;4.53;;;;;;;;;;5017819;28;20073;-79
2021/08/31 03:38:55;;;;;;;8.95;5.75;;;;;;;;;;5018242;28;20077;-80
2021/08/31 03:41:21;;;;;;;7.55;4.85;;;;;;;;;;5025128;28;20064;-80
2021/08/31 03:43:48;;;;;;;7.93;5.20;;;;;;;;;;5021259;28;20077;-80
2021/08/31 03:46:15;;;;;;;8.07;5.18;;;;;;;;;;5017985;28;20085;-80
2021/08/31 03:48:43;;;;;;;7.15;4.80;;;;;;;;;;5019641;28;20458;-80
2021/08/31 03:51:10;;;;;;;7.35;4.63;;;;;;;;;;5017282;28;20065;-80
2021/08/31 03:53:36;;;;;;;8.40;5.47;;;;;;;;;;5017007;28;20077;-80
2021/08/31 03:56:03;;;;;;;8.00;5.00;;;;;;;;;;5016862;28;20076;-80
2021/08/31 03:58:30;;;;;;;7.63;4.63;;;;;;;;;;5017322;28;20100;-80
2021/08/31 04:00:57;;;;;;;7.65;4.93;;;;;;;;;;5016359;28;20089;-80
2021/08/31 04:03:24;;;;;;;8.15;6.03;;;;;;;;;;5016589;28;20046;-80
2021/08/31 04:05:52;;;;;;;7.57;5.13;;;;;;;;;;5017608;28;20125;-80
2021/08/31 04:08:18;;;;;;;7.50;4.60;;;;;;;;;;5018322;28;20145;-80
2021/08/31 04:10:45;;;;;;;8.20;5.00;;;;;;;;;;5015988;28;20074;-80
2021/08/31 04:13:13;;;;;;;8.13;4.90;;;;;;;;;;5016695;28;20073;-80
2021/08/31 04:15:40;;;;;;;6.30;4.40;;;;;;;;;;5019543;28;20053;-80
2021/08/31 04:18:07;;;;;;;8.07;5.22;;;;;;;;;;5020071;28;20562;-80
2021/08/31 04:20:34;;;;;;;7.03;4.63;;;;;;;;;;5019503;28;20100;-80
2021/08/31 04:23:02;;;;;;;7.78;5.15;;;;;;;;;;5019909;28;20526;-80
2021/08/31 04:25:28;;;;;;;7.95;5.00;;;;;;;;;;5019864;28;20046;-80
2021/08/31 04:27:55;;;;;;;7.25;4.60;;;;;;;;;;5019887;28;20054;-79
2021/08/31 04:30:22;;;;;;;8.15;5.35;;;;;;;;;;5019155;28;20466;-80
2021/08/31 04:32:49;;;;;;;7.93;5.60;;;;;;;;;;5021995;28;20049;-80
2021/08/31 04:35:15;;;;;;;9.13;5.57;;;;;;;;;;5020668;28;20105;-79
2021/08/31 04:37:42;;;;;;;9.15;6.30;;;;;;;;;;5019337;28;20151;-79
2021/08/31 04:40:11;;;;;;;9.73;6.65;;;;;;;;;;5019572;28;20046;-79
2021/08/31 04:42:38;;;;;;;9.18;5.95;;;;;;;;;;5020305;28;20108;-79
2021/08/31 04:45:06;;;;;;;9.80;6.47;;;;;;;;;;5019390;28;20534;-79
2021/08/31 04:47:32;;;;;;;10.25;6.68;;;;;;;;;;5023338;28;20055;-79
2021/08/31 04:49:59;;;;;;;9.75;6.43;;;;;;;;;;5022089;28;20049;-80
2021/08/31 04:52:26;;;;;;;10.85;6.40;;;;;;;;;;5021383;28;20050;-80
2021/08/31 04:54:52;;;;;;;9.30;5.82;;;;;;;;;;5020742;28;20074;-79
2021/08/31 04:57:20;;;;;;;9.00;5.72;;;;;;;;;;5021261;28;20077;-79
2021/08/31 04:59:47;;;;;;;7.63;5.45;;;;;;;;;;5020472;28;20073;-80
2021/08/31 05:02:14;;;;;;;9.48;5.82;;;;;;;;;;5019946;28;20495;-80
2021/08/31 05:04:40;;;;;;;8.23;5.60;;;;;;;;;;5020373;28;20046;-80
2021/08/31 05:07:10;;;;;;;9.10;5.57;;;;;;;;;;5020944;28;20050;-79
2021/08/31 05:09:37;;;;;;;8.45;6.43;;;;;;;;;;5020583;28;20105;-80
2021/08/31 05:12:05;;;;;;;8.90;6.32;;;;;;;;;;5020361;28;20046;-78
2021/08/31 05:14:33;;;;;;;9.55;6.32;;;;;;;;;;5022196;28;20080;-80
2021/08/31 05:17:00;;;;;;;7.85;5.57;;;;;;;;;;5021948;28;20128;-79
2021/08/31 05:19:27;;;;;;;8.50;5.88;;;;;;;;;;5022209;28;20077;-79
2021/08/31 05:21:54;;;;;;;9.20;6.07;;;;;;;;;;5019613;28;20042;-80
2021/08/31 05:24:21;;;;;;;8.98;6.32;;;;;;;;;;5021185;28;20049;-79
2021/08/31 05:26:47;;;;;;;10.00;6.57;;;;;;;;;;5021705;28;20046;-79
2021/08/31 05:29:14;;;;;;;8.95;6.30;;;;;;;;;;5021182;28;20148;-79
2021/08/31 05:31:45;;;;;;;9.85;5.93;;;;;;;;;;5020022;28;20042;-79
2021/08/31 05:34:12;;;;;;;9.73;5.80;;;;;;;;;;5020365;28;20387;-80
2021/08/31 05:36:39;;;;;;;9.45;5.72;;;;;;;;;;5019875;28;20043;-79
2021/08/31 05:39:06;;;;;;;9.80;6.07;;;;;;;;;;5019844;28;20082;-79
2021/08/31 05:41:34;;;;;;;8.82;6.07;;;;;;;;;;5018841;28;20050;-79
2021/08/31 05:44:00;;;;;;;11.18;6.43;;;;;;;;;;5019431;28;20055;-79
2021/08/31 05:46:27;;;;;;;10.98;6.55;;;;;;;;;;5019406;28;20045;-79
2021/08/31 05:48:55;;;;;;;9.15;6.07;;;;;;;;;;5021633;28;20046;-79
2021/08/31 05:51:22;;;;;;;8.30;5.57;;;;;;;;;;5024015;28;20050;-79
2021/08/31 05:53:48;;;;;;;10.05;6.47;;;;;;;;;;5022667;28;20042;-82
2021/08/31 05:56:15;;;;;;;10.45;6.85;;;;;;;;;;5021366;28;20050;-78
2021/08/31 05:58:42;;;;;;;10.50;7.25;;;;;;;;;;5021375;28;20049;-79
2021/08/31 06:01:09;;;;;;;13.05;8.10;;;;;;;;;;5019624;28;20462;-79
2021/08/31 06:03:35;;;;;;;9.32;7.25;;;;;;;;;;5023952;28;20042;-81
2021/08/31 06:06:03;;;;;;;10.10;7.13;;;;;;;;;;5021208;28;20462;-81
2021/08/31 06:08:31;;;;;;;12.85;8.20;;;;;;;;;;5017788;28;20057;-79
2021/08/31 06:10:58;;;;;;;10.55;7.40;;;;;;;;;;5017237;28;20058;-79
2021/08/31 06:13:25;;;;;;;10.70;6.90;;;;;;;;;;5017320;28;20053;-79
2021/08/31 06:15:51;;;;;;;10.85;6.88;;;;;;;;;;5017879;28;20053;-80
2021/08/31 06:18:18;;;;;;;11.55;6.97;;;;;;;;;;5017679;28;20042;-81
2021/08/31 06:20:45;;;;;;;9.60;7.05;;;;;;;;;;5016715;28;20046;-81
2021/08/31 06:23:13;;;;;;;12.52;7.93;;;;;;;;;;5018006;28;20558;-81
2021/08/31 06:25:40;;;;;;;11.23;7.55;;;;;;;;;;5018045;28;20045;-79
2021/08/31 06:28:07;;;;;;;10.38;7.13;;;;;;;;;;5018561;28;20085;-81
2021/08/31 06:30:34;;;;;;;10.52;6.68;;;;;;;;;;5018352;28;20050;-81
2021/08/31 06:33:00;;;;;;;11.02;7.70;;;;;;;;;;5018489;28;20042;-81
2021/08/31 06:35:27;;;;;;;12.85;7.88;;;;;;;;;;5018874;28;20052;-78
2021/08/31 06:37:54;;;;;;;11.02;7.65;;;;;;;;;;5017048;28;20053;-79
2021/08/31 06:40:22;;;;;;;13.98;8.52;;;;;;;;;;5017463;28;20365;-79
2021/08/31 06:42:49;;;;;;;10.85;6.85;;;;;;;;;;5017625;28;20507;-79
2021/08/31 06:45:15;;;;;;;12.40;8.75;;;;;;;;;;5017912;28;20041;-79
2021/08/31 06:47:42;;;;;;;10.63;7.47;;;;;;;;;;5017464;28;20065;-79
2021/08/31 06:50:13;;;;;;;10.00;6.93;;;;;;;;;;5017051;28;20050;-78
2021/08/31 06:52:40;;;;;;;12.27;7.65;;;;;;;;;;5017235;28;20563;-79
2021/08/31 06:55:07;;;;;;;11.30;7.75;;;;;;;;;;5017342;28;20499;-79
2021/08/31 06:57:35;;;;;;;11.30;7.45;;;;;;;;;;5017998;28;20045;-79
2021/08/31 07:00:02;;;;;;;11.18;7.50;;;;;;;;;;5017809;28;20054;-78
2021/08/31 07:02:29;;;;;;;12.23;8.10;;;;;;;;;;5018604;28;20042;-81
2021/08/31 07:04:56;;;;;;;11.35;7.57;;;;;;;;;;5017779;28;20581;-80
2021/08/31 07:07:22;;;;;;;12.27;7.95;;;;;;;;;;5018383;28;20057;-79
2021/08/31 07:09:49;;;;;;;12.43;8.38;;;;;;;;;;5017206;28;20049;-79
2021/08/31 07:12:16;;;;;;;13.40;9.38;;;;;;;;;;5017428;28;20100;-79
2021/08/31 07:14:44;;;;;;;14.50;10.68;;;;;;;;;;4998279;28;20057;-82
2021/08/31 07:17:11;;;;;;;11.27;7.72;;;;;;;;;;4998340;28;20073;-78
2021/08/31 07:19:37;;;;;;;12.90;8.20;;;;;;;;;;4998499;28;20042;-79
2021/08/31 07:22:05;;;;;;;10.20;7.00;;;;;;;;;;4997366;28;20430;-78
2021/08/31 07:24:31;;;;;;;9.52;6.95;;;;;;;;;;4997723;28;20086;-81
2021/08/31 07:26:58;;;;;;;10.38;6.80;;;;;;;;;;4997983;28;20107;-79
2021/08/31 07:29:25;;;;;;;9.38;6.63;;;;;;;;;;4997766;28;20050;-79
2021/08/31 07:31:53;;;;;;;8.25;6.28;;;;;;;;;;4996970;28;20095;-79
2021/08/31 07:34:20;;;;;;;11.27;7.43;;;;;;;;;;4997789;28;20050;-78
2021/08/31 07:36:46;;;;;;;10.15;7.32;;;;;;;;;;4997494;28;20419;-79
2021/08/31 07:39:13;;;;;;;9.40;7.35;;;;;;;;;;4997986;28;20093;-79
2021/08/31 07:41:40;;;;;;;10.50;7.65;;;;;;;;;;4996362;28;20051;-79
2021/08/31 07:44:07;;;;;;;9.65;6.28;;;;;;;;;;4997306;28;20518;-79
2021/08/31 07:46:34;;;;;;;9.30;6.55;;;;;;;;;;4997488;28;20463;-80
2021/08/31 07:49:02;;;;;;;12.73;9.38;;;;;;;;;;4999500;28;20051;-78
2021/08/31 07:51:29;;;;;;;9.00;6.10;;;;;;;;;;5002630;28;20077;-78
2021/08/31 07:53:55;;;;;;;10.05;7.00;;;;;;;;;;5002872;28;20047;-78
2021/08/31 07:56:22;;;;;;;9.02;6.70;;;;;;;;;;5003329;28;20043;-79
2021/08/31 07:58:49;;;;;;;9.82;6.93;;;;;;;;;;5007019;28;20380;-78
2021/08/31 08:01:15;;;;;;;8.15;5.80;;;;;;;;;;5008840;28;20077;-79
2021/08/31 08:03:42;;;;;;;9.60;6.75;;;;;;;;;;5027074;28;20046;-79
2021/08/31 08:06:10;;;;;;;10.02;7.22;;;;;;;;;;5028807;28;20053;-78
2021/08/31 08:08:37;;;;;;;10.55;7.47;;;;;;;;;;5030384;28;20050;-79
2021/08/31 08:11:03;;;;;;;10.77;7.22;;;;;;;;;;5021891;28;20073;-80
2021/08/31 08:13:30;;;;;;;14.38;10.82;;;;;;;;;;5030333;28;20045;-78
2021/08/31 08:15:57;;;;;;;10.80;8.18;;;;;;;;;;5031743;28;20049;-79
2021/08/31 08:18:24;;;;;;;13.38;8.95;;;;;;;;;;5025860;28;20050;-79
2021/08/31 08:20:51;;;;;;;11.20;7.93;;;;;;;;;;5022340;28;20100;-80
2021/08/31 08:23:19;;;;;;;12.35;8.02;;;;;;;;;;5022479;28;20096;-79
2021/08/31 08:25:46;;;;;;;13.05;10.20;;;;;;;;;;5021921;28;20050;-78
2021/08/31 08:28:12;;;;;;;10.93;8.30;;;;;;;;;;5022761;28;20045;-79
2021/08/31 08:30:39;;;;;;;12.55;9.20;;;;;;;;;;5021155;28;20077;-79
2021/08/31 08:33:06;;;;;;;13.77;10.05;;;;;;;;;;5021114;28;20046;-80
2021/08/31 08:35:33;;;;;;;12.23;8.85;;;;;;;;;;5020738;28;20411;-79
2021/08/31 08:38:01;;;;;;;11.20;7.90;;;;;;;;;;5020360;28;20077;-78
2021/08/31 08:40:31;;;;;;;14.13;10.80;;;;;;;;;;5020260;28;20073;-79
2021/08/31 08:42:57;;;;;;;11.68;9.20;;;;;;;;;;5020662;28;20050;-80
2021/08/31 08:45:24;;;;;;;10.50;8.18;;;;;;;;;;5020885;28;20050;-80
2021/08/31 08:47:51;;;;;;;11.88;8.35;;;;;;;;;;5020388;28;20124;-78
2021/08/31 08:50:17;;;;;;;9.40;6.72;;;;;;;;;;5019805;28;20507;-79
2021/08/31 08:52:45;;;;;;;10.90;7.53;;;;;;;;;;5020590;28;20049;-79
2021/08/31 08:55:12;;;;;;;11.40;7.60;;;;;;;;;;5020398;28;20045;-83
2021/08/31 08:57:44;;;;;;;9.70;7.68;;;;;;;;;;5020033;28;20045;-79
2021/08/31 09:00:13;;;;;;;9.63;7.28;;;;;;;;;;5019496;28;20054;-78
2021/08/31 09:02:41;;;;;;;10.73;7.47;;;;;;;;;;5020163;28;20046;-80
2021/08/31 09:05:09;;;;;;;8.40;5.72;;;;;;;;;;5019940;28;20045;-80
2021/08/31 09:07:38;;;;;;;11.30;6.85;;;;;;;;;;5020036;28;20046;-79
2021/08/31 09:10:16;;;;;;;9.35;6.55;;;;;;;;;;5018889;28;20496;-79
2021/08/31 09:12:47;;;;;;;9.10;6.40;;;;;;;;;;5019676;28;20110;-79
2021/08/31 09:15:26;;;;;;;8.88;6.40;;;;;;;;;;5021198;28;20324;-80
2021/08/31 09:18:14;;;;;;;9.38;6.22;;;;;;;;;;5020786;28;20127;-80
2021/08/31 09:20:45;;;;;;;10.32;7.22;;;;;;;;;;5019434;28;20406;-79
2021/08/31 09:23:17;;;;;;;8.80;6.80;;;;;;;;;;5019728;28;20056;-80
2021/08/31 09:25:46;;;;;;;10.07;7.78;;;;;;;;;;5021092;28;20046;-80
2021/08/31 09:28:23;;;;;;;10.10;7.20;;;;;;;;;;5020832;28;20050;-80
2021/08/31 09:30:58;;;;;;;8.00;5.68;;;;;;;;;;5019184;28;20057;-79
2021/08/31 09:33:26;;;;;;;9.30;7.25;;;;;;;;;;5020434;28;20049;-80
2021/08/31 09:36:05;;;;;;;8.73;6.75;;;;;;;;;;5020414;28;20042;-81
2021/08/31 09:38:43;;;;;;;8.02;5.85;;;;;;;;;;5019941;28;20046;-81
2021/08/31 09:41:10;;;;;;;10.05;6.97;;;;;;;;;;5019013;28;20054;-80
2021/08/31 09:43:48;;;;;;;9.63;6.60;;;;;;;;;;5019770;28;20074;-81
2021/08/31 09:46:18;;;;;;;7.65;6.47;;;;;;;;;;5019427;28;20128;-80
2021/08/31 09:48:45;;;;;;;8.77;6.50;;;;;;;;;;5020675;28;20052;-80
2021/08/31 09:51:13;;;;;;;9.27;6.97;;;;;;;;;;5018689;28;20054;-80
2021/08/31 09:53:40;;;;;;;7.85;6.30;;;;;;;;;;5019784;28;20053;-80
2021/08/31 09:56:09;;;;;;;9.57;6.85;;;;;;;;;;5018908;28;20060;-80
2021/08/31 09:58:38;;;;;;;7.15;5.28;;;;;;;;;;5019116;28;20077;-80
2021/08/31 10:01:05;;;;;;;8.82;6.30;;;;;;;;;;5018061;28;20046;-79
2021/08/31 10:03:33;;;;;;;7.82;5.88;;;;;;;;;;5018949;28;20046;-79
2021/08/31 10:06:01;;;;;;;7.50;5.25;;;;;;;;;;5018720;28;20100;-80
2021/08/31 10:08:32;;;;;;;7.93;5.00;;;;;;;;;;5021614;28;20144;-79
2021/08/31 10:11:01;;;;;;;8.63;5.25;;;;;;;;;;5021303;28;20091;-79
2021/08/31 10:13:29;;;;;;;6.90;4.85;;;;;;;;;;5020081;28;20046;-80
2021/08/31 10:15:59;;;;;;;6.82;5.00;;;;;;;;;;5020240;28;20042;-80
2021/08/31 10:18:28;;;;;;;6.00;4.57;;;;;;;;;;5019924;28;20042;-81
2021/08/31 10:20:58;;;;;;;6.60;4.15;;;;;;;;;;5019360;28;20543;-80
2021/08/31 10:23:27;;;;;;;7.75;5.90;;;;;;;;;;5019910;28;20416;-80
2021/08/31 10:25:54;;;;;;;6.63;4.75;;;;;;;;;;5019447;28;20484;-79
2021/08/31 10:28:25;;;;;;;7.75;4.70;;;;;;;;;;5017791;28;20081;-81
2021/08/31 10:30:53;;;;;;;7.07;4.70;;;;;;;;;;5015958;28;20049;-80
2021/08/31 10:33:39;;;;;;;7.85;4.80;;;;;;;;;;5016084;28;20053;-79
2021/08/31 10:36:08;;;;;;;5.38;3.90;;;;;;;;;;5021394;28;20053;-77
2021/08/31 10:38:50;;;;;;;6.50;5.13;;;;;;;;;;5019611;28;20525;-79
2021/08/31 10:41:46;;;;;;;5.85;4.15;;;;;;;;;;5015478;28;20046;-78
2021/08/31 10:44:16;;;;;;;5.70;4.30;;;;;;;;;;5015159;28;20057;-77
2021/08/31 10:47:21;;;;;;;5.93;4.68;;;;;;;;;;5018664;28;20045;-80
2021/08/31 10:50:17;;;;;;;6.70;4.53;;;;;;;;;;5015181;28;20053;-80
2021/08/31 10:52:53;;;;;;;6.43;4.32;;;;;;;;;;5015396;28;20049;-81
2021/08/31 10:55:47;;;;;;;6.28;4.10;;;;;;;;;;5014984;28;20149;-81
2021/08/31 10:58:15;;;;;;;6.00;4.05;;;;;;;;;;5015437;28;20277;-77
2021/08/31 11:00:54;;;;;;;6.82;3.97;;;;;;;;;;5014819;28;20116;-79
2021/08/31 11:03:38;;;;;;;6.63;4.00;;;;;;;;;;5016644;28;20050;-78
2021/08/31 11:06:31;;;;;;;7.22;4.43;;;;;;;;;;5015661;28;20055;-80
2021/08/31 11:09:06;;;;;;;7.75;5.30;;;;;;;;;;5011505;28;20095;-79
2021/08/31 11:11:33;;;;;;;7.03;4.60;;;;;;;;;;5014901;28;20054;-80
2021/08/31 11:14:00;;;;;;;7.25;4.45;;;;;;;;;;5015163;28;20054;-79
2021/08/31 11:16:28;;;;;;;6.93;4.60;;;;;;;;;;5014961;28;20073;-80
2021/08/31 11:18:55;;;;;;;6.85;4.72;;;;;;;;;;5015108;28;20103;-80
2021/08/31 11:21:22;;;;;;;8.05;4.93;;;;;;;;;;5014556;28;20045;-78
2021/08/31 11:23:51;;;;;;;7.40;5.32;;;;;;;;;;5014880;28;20057;-82
2021/08/31 11:26:23;;;;;;;7.85;4.90;;;;;;;;;;5015495;28;20071;-80
2021/08/31 11:28:50;;;;;;;7.07;4.60;;;;;;;;;;5015595;28;20050;-80
2021/08/31 11:31:24;;;;;;;8.40;3.83;;;;;;;;;;5014765;28;20061;-80
2021/08/31 11:33:53;;;;;;;7.22;4.20;;;;;;;;;;5015524;28;20104;-83
2021/08/31 11:36:23;;;;;;;5.97;3.83;;;;;;;;;;5015414;28;20054;-77
2021/08/31 11:38:53;;;;;;;6.25;4.40;;;;;;;;;;5018422;28;20053;-82
2021/08/31 11:41:21;;;;;;;7.72;3.78;;;;;;;;;;5019644;28;20045;-82
2021/08/31 11:43:49;;;;;;;5.47;3.58;;;;;;;;;;5019797;28;20050;-83
2021/08/31 11:46:20;;;;;;;5.88;4.13;;;;;;;;;;5018781;28;20200;-83
2021/08/31 11:48:47;;;;;;;5.50;3.58;;;;;;;;;;5019123;28;20145;-83
2021/08/31 11:51:19;;;;;;;6.07;3.72;;;;;;;;;;5017514;28;20057;-83
2021/08/31 11:53:48;;;;;;;6.43;3.75;;;;;;;;;;5019220;28;20058;-80
2021/08/31 11:56:21;;;;;;;6.05;4.20;;;;;;;;;;5018411;28;20065;-83
2021/08/31 11:58:47;;;;;;;5.68;3.63;;;;;;;;;;5017952;28;20066;-80
2021/08/31 12:01:26;;;;;;;7.57;4.28;;;;;;;;;;5017249;28;20045;-80
2021/08/31 12:03:53;;;;;;;8.00;4.85;;;;;;;;;;5018047;28;20054;-79
2021/08/31 12:06:20;;;;;;;6.38;4.75;;;;;;;;;;5017378;28;20041;-79
2021/08/31 12:08:48;;;;;;;6.53;3.72;;;;;;;;;;5017938;28;20050;-80
2021/08/31 12:11:16;;;;;;;8.35;4.78;;;;;;;;;;5017046;28;20049;-80
2021/08/31 12:13:44;;;;;;;5.82;4.38;;;;;;;;;;5018140;28;20046;-81
2021/08/31 12:16:12;;;;;;;7.05;4.60;;;;;;;;;;5017540;28;20050;-79
2021/08/31 12:18:39;;;;;;;5.68;3.90;;;;;;;;;;5017128;28;20053;-80
2021/08/31 12:21:17;;;;;;;8.20;4.70;;;;;;;;;;5017234;28;20054;-80
2021/08/31 12:23:44;;;;;;;9.63;4.65;;;;;;;;;;5018918;28;20046;-79
2021/08/31 12:26:11;;;;;;;9.20;4.57;;;;;;;;;;5018836;28;20074;-81
2021/08/31 12:29:01;;;;;;;7.43;5.00;;;;;;;;;;5017631;28;20503;-81
2021/08/31 12:31:28;;;;;;;9.55;7.43;;;;;;;;;;5018522;28;20149;-83
2021/08/31 12:33:55;;;;;;;6.55;4.82;;;;;;;;;;5019682;28;20042;-84
2021/08/31 12:36:31;;;;;;;7.00;4.38;;;;;;;;;;5021279;28;20050;-82
2021/08/31 12:38:59;;;;;;;6.03;4.65;;;;;;;;;;5022875;28;20042;-83
2021/08/31 12:41:28;;;;;;;6.38;4.20;;;;;;;;;;5023627;28;20061;-84
2021/08/31 12:43:57;;;;;;;5.60;3.88;;;;;;;;;;5022548;28;20077;-84
2021/08/31 12:46:27;;;;;;;6.30;4.00;;;;;;;;;;5023428;28;20124;-82
2021/08/31 12:49:08;;;;;;;5.18;3.78;;;;;;;;;;5025032;28;20041;-83
2021/08/31 12:51:35;;;;;;;;;;;;;;;;;;5024259;28;20117;-83
2021/08/31 12:54:02;;;;;;;6.30;4.22;;;;;;;;;;5024937;28;19948;-84
2021/08/31 12:56:29;;;;;;;7.82;4.10;;;;;;;;;;5032983;28;20045;-79
2021/08/31 12:59:04;;;;;;;5.82;4.00;;;;;;;;;;5035312;28;20037;-79
2021/08/31 13:01:49;;;;;;;8.35;5.38;;;;;;;;;;5031431;28;20053;-82
2021/08/31 13:04:16;;;;;;;8.32;5.68;;;;;;;;;;5008772;28;20054;-81
2021/08/31 13:06:45;;;;;;;6.85;4.50;;;;;;;;;;5007390;28;20484;-84
2021/08/31 13:09:13;;;;;;;6.60;4.28;;;;;;;;;;5006307;28;20084;-83
2021/08/31 13:11:41;;;;;;;5.65;4.57;;;;;;;;;;5005261;28;20078;-83
2021/08/31 13:14:09;;;;;;;6.43;4.03;;;;;;;;;;5019778;28;20050;-82
2021/08/31 13:16:38;;;;;;;7.30;3.95;;;;;;;;;;5024490;28;20506;-82
2021/08/31 13:19:06;;;;;;;7.60;5.35;;;;;;;;;;5025041;28;20492;-82
2021/08/31 13:21:34;;;;;;;6.72;4.50;;;;;;;;;;5024317;28;20042;-80
2021/08/31 13:24:01;;;;;;;6.45;4.72;;;;;;;;;;5025166;28;20046;-83
2021/08/31 13:26:29;;;;;;;7.55;4.30;;;;;;;;;;5024698;28;20104;-83
2021/08/31 13:28:56;;;;;;;5.95;3.83;;;;;;;;;;5023333;28;20121;-80
2021/08/31 13:31:23;;;;;;;5.53;3.75;;;;;;;;;;5020094;28;20054;-81
2021/08/31 13:33:51;;;;;;;5.82;4.40;;;;;;;;;;5023733;28;20451;-81
2021/08/31 13:36:18;;;;;;;5.53;4.10;;;;;;;;;;5022404;28;20046;-81
2021/08/31 13:38:45;;;;;;;5.82;3.35;;;;;;;;;;5020980;28;20064;-80
2021/08/31 13:41:12;;;;;;;5.10;3.33;;;;;;;;;;5018218;28;20491;-80
2021/08/31 13:43:39;;;;;;;5.35;3.38;;;;;;;;;;5017968;28;20085;-80
2021/08/31 13:46:07;;;;;;;5.50;3.45;;;;;;;;;;5067839;22;20045;-83
2021/08/31 13:48:34;;;;;;;5.40;3.35;;;;;;;;;;5064648;28;20064;-82
2021/08/31 13:51:03;;;;;;;6.55;3.60;;;;;;;;;;5064292;28;20056;-82
2021/08/31 13:53:29;;;;;;;5.45;3.88;;;;;;;;;;5062372;28;20049;-82
2021/08/31 13:55:56;;;;;;;5.25;3.58;;;;;;;;;;5061475;28;20098;-81
2021/08/31 13:58:23;;;;;;;5.32;3.50;;;;;;;;;;5060155;28;20540;-82
2021/08/31 14:00:51;;;;;;;6.68;4.43;;;;;;;;;;5060388;28;20049;-82
2021/08/31 14:03:18;;;;;;;6.07;3.97;;;;;;;;;;5063436;28;20057;-82
2021/08/31 14:05:44;;;;;;;6.45;4.05;;;;;;;;;;5064319;28;20053;-81
2021/08/31 14:08:13;;;;;;;5.03;3.90;;;;;;;;;;5064830;28;20048;-81
2021/08/31 14:10:39;;;;;;;5.72;3.72;;;;;;;;;;5062998;28;20045;-82
2021/08/31 14:13:07;;;;;;;5.25;3.65;;;;;;;;;;5064651;28;20096;-81
2021/08/31 14:15:35;;;;;;;4.95;3.42;;;;;;;;;;5063991;28;20045;-82
2021/08/31 14:18:02;;;;;;;5.05;3.92;;;;;;;;;;5064076;28;20045;-81
2021/08/31 14:20:32;;;;;;;6.00;4.60;;;;;;;;;;5063734;28;20048;-81
2021/08/31 14:22:59;;;;;;;5.00;3.72;;;;;;;;;;5065592;28;20059;-82
2021/08/31 14:25:27;;;;;;;5.43;3.45;;;;;;;;;;5065655;28;20049;-82
2021/08/31 14:27:59;;;;;;;5.57;3.75;;;;;;;;;;5064976;28;20067;-81
2021/08/31 14:30:26;;;;;;;6.00;3.75;;;;;;;;;;5063999;28;20045;-87
2021/08/31 14:32:53;;;;;;;6.78;5.75;;;;;;;;;;5062511;28;20045;-82
2021/08/31 14:35:20;;;;;;;5.95;3.95;;;;;;;;;;5060863;28;20486;-82
2021/08/31 14:37:47;;;;;;;7.50;4.85;;;;;;;;;;5061282;28;20049;-83
2021/08/31 14:40:14;;;;;;;6.75;4.00;;;;;;;;;;5060522;28;20049;-82
2021/08/31 14:42:43;;;;;;;5.93;3.78;;;;;;;;;;5063165;28;20049;-83
2021/08/31 14:45:12;;;;;;;5.57;4.15;;;;;;;;;;5064065;28;20048;-82
2021/08/31 14:47:40;;;;;;;5.38;3.88;;;;;;;;;;5064999;28;20044;-82
2021/08/31 14:50:09;;;;;;;5.90;4.10;;;;;;;;;;5063243;28;20052;-82
2021/08/31 14:52:38;;;;;;;5.85;4.32;;;;;;;;;;5063865;28;20049;-82
2021/08/31 14:55:09;;;;;;;6.40;4.05;;;;;;;;;;5063610;28;20108;-83
2021/08/31 14:57:36;;;;;;;6.38;5.00;;;;;;;;;;5064415;28;20118;-83
2021/08/31 15:00:05;;;;;;;5.55;4.38;;;;;;;;;;5063864;28;20052;-81
2021/08/31 15:02:31;;;;;;;5.40;3.97;;;;;;;;;;5064739;28;20049;-83
2021/08/31 15:04:58;;;;;;;7.35;5.38;;;;;;;;;;5065351;28;20075;-81
2021/08/31 15:07:25;;;;;;;5.35;3.78;;;;;;;;;;5067170;28;20048;-82
2021/08/31 15:09:52;;;;;;;6.88;4.00;;;;;;;;;;5069022;28;20049;-83
2021/08/31 15:12:18;;;;;;;6.97;4.93;;;;;;;;;;5069194;28;20045;-83
2021/08/31 15:14:45;;;;;;;5.30;3.80;;;;;;;;;;5068367;28;20045;-82
2021/08/31 15:17:14;;;;;;;8.13;6.45;;;;;;;;;;5068803;28;20075;-82